JTC501 KFYV-KPNE
Flight info
| Callsign | JTC501 |
|---|---|
| Flight time | 2h 2m |
| Altitude | 37000 |
| Route | PLIED J46 BNA Q32 SWAPP Q34 SITTR Q108 MAULS Q34 GVE PAATS4 |
| Aircraft | FA50/M-SDFGHIM1RWXY/H |
Departure
| Time | 2026-05-08 10:50 |
|---|---|
| Airport | Drake Field (KFYV) |
Arrival
| Time | 2026-05-08 12:52 |
|---|---|
| Airport | Northeast Philadelphia Airport (KPNE) |
| Time | Latitude | Longitude | Altitude | Speed | Heading |
|---|---|---|---|---|---|
| 2026-05-08 10:28 | 36.00417 | -94.17168 | 1262 ft | 0 kts | 160° |
| 2026-05-08 10:45 | 36.00391 | -94.17155 | 1260 ft | 7 kts | 162° |
| 2026-05-08 10:45 | 36.00345 | -94.17118 | 1257 ft | 8 kts | 101° |
| 2026-05-08 10:45 | 36.00327 | -94.17088 | 1261 ft | 5 kts | 161° |
| 2026-05-08 10:46 | 36.00282 | -94.17072 | 1254 ft | 9 kts | 167° |
| 2026-05-08 10:46 | 36.00211 | -94.17050 | 1263 ft | 12 kts | 166° |
| 2026-05-08 10:46 | 36.00118 | -94.17024 | 1254 ft | 15 kts | 167° |
| 2026-05-08 10:46 | 36.00010 | -94.16995 | 1257 ft | 16 kts | 169° |
| 2026-05-08 10:47 | 35.99897 | -94.16965 | 1253 ft | 18 kts | 168° |
| 2026-05-08 10:47 | 35.99773 | -94.16938 | 1252 ft | 18 kts | 168° |
| 2026-05-08 10:47 | 35.99709 | -94.16912 | 1253 ft | 9 kts | 144° |
| 2026-05-08 10:47 | 35.99702 | -94.16841 | 1252 ft | 9 kts | 72° |
| 2026-05-08 10:48 | 35.99730 | -94.16819 | 1253 ft | 5 kts | 349° |
| 2026-05-08 10:48 | 35.99732 | -94.16820 | 1253 ft | 0 kts | 349° |
| 2026-05-08 10:49 | 35.99779 | -94.16830 | 1253 ft | 30 kts | 349° |
| 2026-05-08 10:49 | 36.00209 | -94.16938 | 1254 ft | 94 kts | 349° |
| 2026-05-08 10:49 | 36.01023 | -94.17133 | 1319 ft | 136 kts | 349° |
| 2026-05-08 10:49 | 36.01984 | -94.17352 | 1827 ft | 149 kts | 350° |
| 2026-05-08 10:50 | 36.03092 | -94.17615 | 2347 ft | 173 kts | 347° |
| 2026-05-08 10:50 | 36.04318 | -94.17887 | 3002 ft | 187 kts | 349° |
| 2026-05-08 10:50 | 36.05651 | -94.18104 | 3720 ft | 195 kts | 356° |
| 2026-05-08 10:50 | 36.06967 | -94.17608 | 4382 ft | 214 kts | 42° |
| 2026-05-08 10:51 | 36.07696 | -94.16013 | 5073 ft | 220 kts | 78° |
| 2026-05-08 10:51 | 36.07825 | -94.14110 | 5757 ft | 235 kts | 89° |
| 2026-05-08 10:51 | 36.08212 | -94.11971 | 5789 ft | 277 kts | 62° |
| 2026-05-08 10:51 | 36.09455 | -94.10086 | 6514 ft | 280 kts | 54° |
| 2026-05-08 10:52 | 36.10118 | -94.07882 | 7457 ft | 280 kts | 86° |
| 2026-05-08 10:52 | 36.09768 | -94.05494 | 8097 ft | 289 kts | 110° |
| 2026-05-08 10:52 | 36.09040 | -94.03155 | 8876 ft | 293 kts | 110° |
| 2026-05-08 10:52 | 36.08449 | -94.00735 | 9691 ft | 296 kts | 103° |
| 2026-05-08 10:53 | 36.08160 | -93.98183 | 10244 ft | 309 kts | 92° |
| 2026-05-08 10:53 | 36.08262 | -93.95468 | 10739 ft | 320 kts | 84° |
| 2026-05-08 10:53 | 36.08496 | -93.92719 | 11486 ft | 323 kts | 84° |
| 2026-05-08 10:53 | 36.08629 | -93.89919 | 12119 ft | 330 kts | 88° |
| 2026-05-08 10:54 | 36.08657 | -93.87053 | 12779 ft | 336 kts | 89° |
| 2026-05-08 10:54 | 36.08719 | -93.84147 | 13456 ft | 341 kts | 87° |
| 2026-05-08 10:54 | 36.08833 | -93.81193 | 14074 ft | 347 kts | 86° |
| 2026-05-08 10:54 | 36.08936 | -93.78184 | 14644 ft | 353 kts | 87° |
| 2026-05-08 10:55 | 36.09016 | -93.75123 | 15225 ft | 359 kts | 88° |
| 2026-05-08 10:55 | 36.09100 | -93.72023 | 15819 ft | 363 kts | 87° |
| 2026-05-08 10:55 | 36.09195 | -93.68879 | 16395 ft | 369 kts | 87° |
| 2026-05-08 10:55 | 36.09290 | -93.65691 | 16981 ft | 374 kts | 88° |
| 2026-05-08 10:56 | 36.09379 | -93.62495 | 17557 ft | 379 kts | 88° |
| 2026-05-08 10:56 | 36.09472 | -93.59170 | 18131 ft | 385 kts | 88° |
| 2026-05-08 10:56 | 36.09564 | -93.55884 | 18646 ft | 389 kts | 88° |
| 2026-05-08 10:56 | 36.09657 | -93.52524 | 19168 ft | 393 kts | 88° |
| 2026-05-08 10:57 | 36.09749 | -93.49126 | 19649 ft | 397 kts | 88° |
| 2026-05-08 10:57 | 36.09840 | -93.45697 | 20122 ft | 401 kts | 88° |
| 2026-05-08 10:57 | 36.10027 | -93.38736 | 21052 ft | 409 kts | 89° |
| 2026-05-08 10:58 | 36.10120 | -93.35202 | 21514 ft | 412 kts | 89° |
| 2026-05-08 10:58 | 36.10211 | -93.31642 | 21960 ft | 416 kts | 89° |
| 2026-05-08 10:58 | 36.10302 | -93.28049 | 22406 ft | 420 kts | 89° |
| 2026-05-08 10:58 | 36.10395 | -93.24419 | 22858 ft | 424 kts | 89° |
| 2026-05-08 10:59 | 36.10486 | -93.20761 | 23274 ft | 428 kts | 89° |
| 2026-05-08 10:59 | 36.10577 | -93.17065 | 23704 ft | 431 kts | 89° |
| 2026-05-08 10:59 | 36.10667 | -93.13349 | 24078 ft | 434 kts | 89° |
| 2026-05-08 10:59 | 36.10759 | -93.09607 | 24445 ft | 437 kts | 89° |
| 2026-05-08 11:00 | 36.10849 | -93.05830 | 24807 ft | 440 kts | 89° |
| 2026-05-08 11:00 | 36.10937 | -93.02032 | 25171 ft | 444 kts | 89° |
| 2026-05-08 11:00 | 36.11025 | -92.98196 | 25517 ft | 447 kts | 89° |
| 2026-05-08 11:00 | 36.11114 | -92.94347 | 25873 ft | 450 kts | 89° |
| 2026-05-08 11:01 | 36.11201 | -92.90459 | 26228 ft | 453 kts | 89° |
| 2026-05-08 11:01 | 36.11288 | -92.86551 | 26595 ft | 456 kts | 89° |
| 2026-05-08 11:01 | 36.11374 | -92.82612 | 26963 ft | 459 kts | 89° |
| 2026-05-08 11:01 | 36.11458 | -92.78651 | 27300 ft | 463 kts | 90° |
| 2026-05-08 11:02 | 36.11543 | -92.74716 | 27649 ft | 465 kts | 90° |
| 2026-05-08 11:02 | 36.11708 | -92.66669 | 28334 ft | 471 kts | 90° |
| 2026-05-08 11:02 | 36.11791 | -92.62596 | 28585 ft | 477 kts | 90° |
| 2026-05-08 11:03 | 36.11873 | -92.58486 | 28918 ft | 479 kts | 90° |
| 2026-05-08 11:03 | 36.11953 | -92.54349 | 29258 ft | 482 kts | 90° |
| 2026-05-08 11:03 | 36.12032 | -92.50194 | 29583 ft | 485 kts | 90° |
| 2026-05-08 11:03 | 36.12111 | -92.46003 | 29889 ft | 488 kts | 90° |
| 2026-05-08 11:04 | 36.12190 | -92.41793 | 30191 ft | 491 kts | 90° |
| 2026-05-08 11:04 | 36.12266 | -92.37558 | 30435 ft | 495 kts | 90° |
| 2026-05-08 11:04 | 36.12341 | -92.33290 | 30666 ft | 498 kts | 90° |
| 2026-05-08 11:04 | 36.12416 | -92.28990 | 30897 ft | 502 kts | 90° |
| 2026-05-08 11:05 | 36.12490 | -92.24646 | 31059 ft | 508 kts | 90° |
| 2026-05-08 11:05 | 36.12563 | -92.20260 | 31284 ft | 511 kts | 90° |
| 2026-05-08 11:05 | 36.12635 | -92.15855 | 31513 ft | 514 kts | 91° |
| 2026-05-08 11:05 | 36.12706 | -92.11414 | 31732 ft | 518 kts | 91° |
| 2026-05-08 11:06 | 36.12775 | -92.06952 | 31941 ft | 521 kts | 91° |
| 2026-05-08 11:06 | 36.12844 | -92.02453 | 32191 ft | 523 kts | 91° |
| 2026-05-08 11:06 | 36.12910 | -91.97951 | 32492 ft | 524 kts | 91° |
| 2026-05-08 11:06 | 36.12975 | -91.93436 | 32750 ft | 526 kts | 91° |
| 2026-05-08 11:07 | 36.13039 | -91.88894 | 32978 ft | 529 kts | 91° |
| 2026-05-08 11:07 | 36.13101 | -91.84315 | 33122 ft | 534 kts | 91° |
| 2026-05-08 11:07 | 36.13162 | -91.79726 | 33410 ft | 535 kts | 91° |
| 2026-05-08 11:07 | 36.13224 | -91.75114 | 33689 ft | 536 kts | 91° |
| 2026-05-08 11:08 | 36.13281 | -91.70494 | 33937 ft | 538 kts | 92° |
| 2026-05-08 11:08 | 36.13339 | -91.65851 | 34182 ft | 540 kts | 91° |
| 2026-05-08 11:08 | 36.13696 | -91.61221 | 34457 ft | 542 kts | 80° |
| 2026-05-08 11:08 | 36.14440 | -91.56660 | 34684 ft | 541 kts | 76° |
| 2026-05-08 11:09 | 36.15414 | -91.52165 | 34901 ft | 541 kts | 72° |
| 2026-05-08 11:09 | 36.16450 | -91.47676 | 35059 ft | 543 kts | 73° |
| 2026-05-08 11:09 | 36.17335 | -91.43130 | 35256 ft | 544 kts | 77° |
| 2026-05-08 11:09 | 36.18139 | -91.38557 | 35506 ft | 543 kts | 76° |
| 2026-05-08 11:10 | 36.19033 | -91.34020 | 35714 ft | 543 kts | 74° |
| 2026-05-08 11:10 | 36.19999 | -91.29508 | 35922 ft | 543 kts | 74° |
| 2026-05-08 11:10 | 36.20911 | -91.24968 | 36126 ft | 543 kts | 76° |
| 2026-05-08 11:10 | 36.21757 | -91.20417 | 36338 ft | 543 kts | 76° |
| 2026-05-08 11:11 | 36.22618 | -91.15934 | 36543 ft | 542 kts | 75° |
| 2026-05-08 11:11 | 36.23549 | -91.11345 | 36742 ft | 543 kts | 75° |
| 2026-05-08 11:11 | 36.24454 | -91.06816 | 37048 ft | 541 kts | 75° |
| 2026-05-08 11:12 | 36.26196 | -90.97707 | 37054 ft | 551 kts | 75° |
| 2026-05-08 11:12 | 36.28025 | -90.88402 | 37068 ft | 561 kts | 75° |
| 2026-05-08 11:13 | 36.29840 | -90.78930 | 37062 ft | 569 kts | 76° |
| 2026-05-08 11:13 | 36.31700 | -90.69310 | 37058 ft | 577 kts | 75° |
| 2026-05-08 11:14 | 36.33552 | -90.59605 | 37057 ft | 578 kts | 76° |
| 2026-05-08 11:14 | 36.35399 | -90.49933 | 37052 ft | 574 kts | 76° |
| 2026-05-08 11:15 | 36.37223 | -90.40295 | 37054 ft | 573 kts | 76° |
| 2026-05-08 11:15 | 36.39049 | -90.30641 | 37038 ft | 576 kts | 76° |
| 2026-05-08 11:16 | 36.40871 | -90.20928 | 37039 ft | 578 kts | 76° |
| 2026-05-08 11:16 | 36.42691 | -90.11205 | 37040 ft | 577 kts | 76° |
| 2026-05-08 11:17 | 36.44490 | -90.01526 | 37040 ft | 576 kts | 76° |
| 2026-05-08 11:17 | 36.46287 | -89.91826 | 37048 ft | 577 kts | 76° |
| 2026-05-08 11:18 | 36.48080 | -89.82099 | 37048 ft | 578 kts | 76° |
| 2026-05-08 11:18 | 36.49867 | -89.72349 | 37048 ft | 578 kts | 76° |
| 2026-05-08 11:19 | 36.51646 | -89.62603 | 37062 ft | 577 kts | 76° |
| 2026-05-08 11:19 | 36.53394 | -89.52974 | 37062 ft | 573 kts | 76° |
| 2026-05-08 11:20 | 36.55156 | -89.43232 | 37056 ft | 574 kts | 76° |
| 2026-05-08 11:20 | 36.56886 | -89.33601 | 37060 ft | 576 kts | 76° |
| 2026-05-08 11:21 | 36.58629 | -89.23863 | 37059 ft | 576 kts | 76° |
| 2026-05-08 11:21 | 36.60365 | -89.14114 | 37056 ft | 577 kts | 76° |
| 2026-05-08 11:22 | 36.62093 | -89.04353 | 37062 ft | 578 kts | 76° |
| 2026-05-08 11:22 | 36.63819 | -88.94567 | 37062 ft | 578 kts | 76° |
| 2026-05-08 11:23 | 36.65533 | -88.84781 | 37076 ft | 578 kts | 76° |
| 2026-05-08 11:23 | 36.66953 | -88.76653 | 37076 ft | 578 kts | 76° |
| 2026-05-08 11:24 | 36.68654 | -88.66860 | 37080 ft | 578 kts | 76° |
| 2026-05-08 11:24 | 36.70345 | -88.57068 | 37085 ft | 578 kts | 76° |
| 2026-05-08 11:25 | 36.72034 | -88.47253 | 37084 ft | 578 kts | 76° |
| 2026-05-08 11:25 | 36.73711 | -88.37438 | 37140 ft | 580 kts | 76° |
| 2026-05-08 11:26 | 36.75385 | -88.27604 | 37088 ft | 578 kts | 76° |
| 2026-05-08 11:26 | 36.77041 | -88.17810 | 37084 ft | 576 kts | 76° |
| 2026-05-08 11:27 | 36.78687 | -88.08038 | 37077 ft | 577 kts | 76° |
| 2026-05-08 11:27 | 36.80332 | -87.98214 | 37077 ft | 580 kts | 76° |
| 2026-05-08 11:28 | 36.81972 | -87.88363 | 37080 ft | 580 kts | 76° |
| 2026-05-08 11:28 | 36.83604 | -87.78511 | 37074 ft | 579 kts | 76° |
| 2026-05-08 11:29 | 36.85216 | -87.68729 | 37078 ft | 578 kts | 76° |
| 2026-05-08 11:29 | 36.86834 | -87.58858 | 37084 ft | 581 kts | 76° |
| 2026-05-08 11:30 | 36.88447 | -87.48955 | 37085 ft | 582 kts | 76° |
| 2026-05-08 11:30 | 36.90052 | -87.39051 | 37085 ft | 581 kts | 76° |
| 2026-05-08 11:31 | 36.91647 | -87.29163 | 37086 ft | 581 kts | 76° |
| 2026-05-08 11:31 | 36.93234 | -87.19252 | 37082 ft | 582 kts | 76° |
| 2026-05-08 11:32 | 36.94817 | -87.09327 | 37080 ft | 582 kts | 76° |
| 2026-05-08 11:32 | 36.96392 | -86.99389 | 37080 ft | 582 kts | 76° |
| 2026-05-08 11:33 | 36.97947 | -86.89512 | 37075 ft | 578 kts | 76° |
| 2026-05-08 11:33 | 36.99497 | -86.79635 | 37078 ft | 580 kts | 76° |
| 2026-05-08 11:34 | 37.01029 | -86.69783 | 37084 ft | 581 kts | 76° |
| 2026-05-08 11:34 | 37.02569 | -86.59855 | 37090 ft | 581 kts | 77° |
| 2026-05-08 11:35 | 37.04097 | -86.49922 | 37093 ft | 581 kts | 76° |
| 2026-05-08 11:35 | 37.05620 | -86.39989 | 37093 ft | 581 kts | 77° |
| 2026-05-08 11:36 | 37.07131 | -86.30051 | 37096 ft | 581 kts | 77° |
| 2026-05-08 11:36 | 37.08635 | -86.20114 | 37098 ft | 581 kts | 77° |
| 2026-05-08 11:37 | 37.10131 | -86.10172 | 37104 ft | 582 kts | 76° |
| 2026-05-08 11:37 | 37.11621 | -86.00202 | 37106 ft | 582 kts | 77° |
| 2026-05-08 11:38 | 37.13104 | -85.90229 | 37107 ft | 583 kts | 77° |
| 2026-05-08 11:38 | 37.14580 | -85.80238 | 37105 ft | 583 kts | 77° |
| 2026-05-08 11:39 | 37.16046 | -85.70252 | 37113 ft | 583 kts | 77° |
| 2026-05-08 11:39 | 37.17503 | -85.60270 | 37104 ft | 579 kts | 77° |
| 2026-05-08 11:40 | 37.18942 | -85.50349 | 37102 ft | 578 kts | 77° |
| 2026-05-08 11:40 | 37.20365 | -85.40484 | 37107 ft | 579 kts | 77° |
| 2026-05-08 11:41 | 37.21792 | -85.30524 | 37104 ft | 580 kts | 77° |
| 2026-05-08 11:41 | 37.23211 | -85.20559 | 37103 ft | 581 kts | 77° |
| 2026-05-08 11:42 | 37.24623 | -85.10579 | 37103 ft | 581 kts | 77° |
| 2026-05-08 11:42 | 37.26026 | -85.00596 | 37109 ft | 580 kts | 77° |
| 2026-05-08 11:43 | 37.27423 | -84.90612 | 37111 ft | 580 kts | 77° |
| 2026-05-08 11:43 | 37.28806 | -84.80637 | 37108 ft | 580 kts | 77° |
| 2026-05-08 11:44 | 37.30187 | -84.70637 | 37111 ft | 580 kts | 77° |
| 2026-05-08 11:44 | 37.31558 | -84.60638 | 37091 ft | 581 kts | 77° |
| 2026-05-08 11:45 | 37.32919 | -84.50629 | 37080 ft | 582 kts | 77° |
| 2026-05-08 11:45 | 37.34277 | -84.40603 | 37082 ft | 582 kts | 77° |
| 2026-05-08 11:46 | 37.35612 | -84.30643 | 37095 ft | 579 kts | 77° |
| 2026-05-08 11:46 | 37.36944 | -84.20682 | 37092 ft | 577 kts | 77° |
| 2026-05-08 11:47 | 37.38264 | -84.10719 | 37092 ft | 579 kts | 77° |
| 2026-05-08 11:47 | 37.39582 | -84.00715 | 37088 ft | 580 kts | 77° |
| 2026-05-08 11:48 | 37.40892 | -83.90710 | 37086 ft | 580 kts | 77° |
| 2026-05-08 11:48 | 37.42192 | -83.80694 | 37086 ft | 580 kts | 77° |
| 2026-05-08 11:49 | 37.43486 | -83.70673 | 37086 ft | 580 kts | 77° |
| 2026-05-08 11:49 | 37.44769 | -83.60652 | 37085 ft | 580 kts | 77° |
| 2026-05-08 11:50 | 37.46047 | -83.50618 | 37078 ft | 580 kts | 77° |
| 2026-05-08 11:50 | 37.47315 | -83.40585 | 37088 ft | 581 kts | 77° |
| 2026-05-08 11:51 | 37.48574 | -83.30542 | 37115 ft | 581 kts | 77° |
| 2026-05-08 11:51 | 37.49829 | -83.20488 | 37114 ft | 581 kts | 77° |
| 2026-05-08 11:52 | 37.51072 | -83.10425 | 37095 ft | 581 kts | 77° |
| 2026-05-08 11:52 | 37.52307 | -83.00376 | 37101 ft | 578 kts | 77° |
| 2026-05-08 11:53 | 37.53524 | -82.90395 | 37098 ft | 575 kts | 77° |
| 2026-05-08 11:53 | 37.54729 | -82.80445 | 37102 ft | 575 kts | 78° |
| 2026-05-08 11:54 | 37.55922 | -82.70516 | 37115 ft | 578 kts | 78° |
| 2026-05-08 11:54 | 37.57118 | -82.60487 | 37117 ft | 577 kts | 78° |
| 2026-05-08 11:55 | 37.58302 | -82.50497 | 37113 ft | 576 kts | 78° |
| 2026-05-08 11:55 | 37.59476 | -82.40512 | 37084 ft | 576 kts | 78° |
| 2026-05-08 11:56 | 37.60643 | -82.30500 | 37076 ft | 578 kts | 78° |
| 2026-05-08 11:56 | 37.61807 | -82.20458 | 37077 ft | 579 kts | 78° |
| 2026-05-08 11:57 | 37.62961 | -82.10405 | 37073 ft | 579 kts | 78° |
| 2026-05-08 11:57 | 37.64107 | -82.00363 | 37070 ft | 578 kts | 78° |
| 2026-05-08 11:58 | 37.65241 | -81.90325 | 37072 ft | 577 kts | 78° |
| 2026-05-08 11:58 | 37.66368 | -81.80296 | 37076 ft | 577 kts | 78° |
| 2026-05-08 11:59 | 37.68034 | -81.65283 | 37088 ft | 571 kts | 78° |
| 2026-05-08 11:59 | 37.69127 | -81.55381 | 37087 ft | 569 kts | 78° |
| 2026-05-08 12:00 | 37.70209 | -81.45459 | 37099 ft | 572 kts | 78° |
| 2026-05-08 12:00 | 37.71290 | -81.35483 | 37105 ft | 574 kts | 78° |
| 2026-05-08 12:01 | 37.72362 | -81.25496 | 37112 ft | 573 kts | 78° |
| 2026-05-08 12:01 | 37.73424 | -81.15537 | 37115 ft | 572 kts | 78° |
| 2026-05-08 12:02 | 37.74478 | -81.05573 | 37115 ft | 572 kts | 79° |
| 2026-05-08 12:02 | 37.75524 | -80.95588 | 37112 ft | 573 kts | 79° |
| 2026-05-08 12:03 | 37.76554 | -80.85681 | 37106 ft | 573 kts | 79° |
| 2026-05-08 12:03 | 37.77585 | -80.75682 | 36871 ft | 578 kts | 79° |
| 2026-05-08 12:04 | 37.78115 | -80.70551 | 35705 ft | 598 kts | 79° |
| 2026-05-08 12:04 | 37.78649 | -80.65287 | 35118 ft | 602 kts | 79° |
| 2026-05-08 12:04 | 37.79168 | -80.60087 | 35122 ft | 590 kts | 79° |
| 2026-05-08 12:04 | 37.79685 | -80.54975 | 35122 ft | 584 kts | 79° |
| 2026-05-08 12:05 | 37.80724 | -80.44745 | 35135 ft | 591 kts | 79° |
| 2026-05-08 12:05 | 37.81739 | -80.34440 | 35128 ft | 589 kts | 79° |
| 2026-05-08 12:06 | 37.82757 | -80.24193 | 35124 ft | 586 kts | 79° |
| 2026-05-08 12:06 | 37.83746 | -80.14023 | 35115 ft | 587 kts | 79° |
| 2026-05-08 12:07 | 37.84749 | -80.03699 | 35096 ft | 588 kts | 79° |
| 2026-05-08 12:07 | 37.85731 | -79.93432 | 35096 ft | 588 kts | 80° |
| 2026-05-08 12:08 | 37.86702 | -79.83235 | 35096 ft | 587 kts | 79° |
| 2026-05-08 12:08 | 37.87668 | -79.72961 | 35100 ft | 589 kts | 79° |
| 2026-05-08 12:09 | 37.88630 | -79.62655 | 35102 ft | 591 kts | 80° |
| 2026-05-08 12:09 | 37.89423 | -79.54066 | 35105 ft | 590 kts | 80° |
| 2026-05-08 12:10 | 37.90366 | -79.43769 | 35099 ft | 589 kts | 80° |
| 2026-05-08 12:10 | 37.91304 | -79.33449 | 35106 ft | 592 kts | 80° |
| 2026-05-08 12:11 | 37.92233 | -79.23075 | 35097 ft | 593 kts | 80° |
| 2026-05-08 12:11 | 37.93157 | -79.12710 | 35087 ft | 592 kts | 80° |
| 2026-05-08 12:12 | 37.94067 | -79.02354 | 35077 ft | 592 kts | 80° |
| 2026-05-08 12:12 | 37.94971 | -78.91989 | 35075 ft | 592 kts | 80° |
| 2026-05-08 12:13 | 37.95863 | -78.81633 | 35067 ft | 591 kts | 80° |
| 2026-05-08 12:13 | 37.96749 | -78.71256 | 35068 ft | 593 kts | 80° |
| 2026-05-08 12:14 | 37.97625 | -78.60870 | 35071 ft | 593 kts | 81° |
| 2026-05-08 12:14 | 37.98494 | -78.50466 | 35077 ft | 593 kts | 81° |
| 2026-05-08 12:15 | 37.99355 | -78.40056 | 35079 ft | 593 kts | 81° |
| 2026-05-08 12:15 | 38.00204 | -78.29655 | 35075 ft | 593 kts | 81° |
| 2026-05-08 12:16 | 38.01234 | -78.19305 | 35072 ft | 588 kts | 71° |
| 2026-05-08 12:16 | 38.04134 | -78.09828 | 35098 ft | 567 kts | 52° |
| 2026-05-08 12:17 | 38.08254 | -78.01425 | 35108 ft | 555 kts | 45° |
| 2026-05-08 12:17 | 38.12456 | -77.93270 | 35088 ft | 558 kts | 49° |
| 2026-05-08 12:18 | 38.16516 | -77.84876 | 35076 ft | 557 kts | 47° |
| 2026-05-08 12:18 | 38.20734 | -77.76600 | 35064 ft | 560 kts | 48° |
| 2026-05-08 12:19 | 38.24824 | -77.68179 | 35126 ft | 559 kts | 48° |
| 2026-05-08 12:19 | 38.28999 | -77.59861 | 35088 ft | 556 kts | 48° |
| 2026-05-08 12:20 | 38.33082 | -77.51494 | 35087 ft | 556 kts | 48° |
| 2026-05-08 12:20 | 38.37216 | -77.43152 | 35088 ft | 557 kts | 48° |
| 2026-05-08 12:21 | 38.41314 | -77.34758 | 35086 ft | 558 kts | 49° |
| 2026-05-08 12:21 | 38.45434 | -77.26363 | 35099 ft | 558 kts | 49° |
| 2026-05-08 12:22 | 38.49526 | -77.17960 | 35084 ft | 557 kts | 49° |
| 2026-05-08 12:22 | 38.53618 | -77.09562 | 35075 ft | 557 kts | 49° |
| 2026-05-08 12:23 | 38.57701 | -77.01148 | 35066 ft | 557 kts | 49° |
| 2026-05-08 12:23 | 38.61782 | -76.92718 | 35125 ft | 557 kts | 49° |
| 2026-05-08 12:24 | 38.65827 | -76.84343 | 35052 ft | 556 kts | 49° |
| 2026-05-08 12:24 | 38.67873 | -76.80101 | 34649 ft | 562 kts | 49° |
| 2026-05-08 12:24 | 38.69842 | -76.75768 | 34233 ft | 568 kts | 56° |
| 2026-05-08 12:25 | 38.71307 | -76.71048 | 33778 ft | 570 kts | 65° |
| 2026-05-08 12:25 | 38.72452 | -76.66213 | 33297 ft | 566 kts | 70° |
| 2026-05-08 12:25 | 38.73368 | -76.61335 | 32818 ft | 560 kts | 73° |
| 2026-05-08 12:25 | 38.74235 | -76.56514 | 32354 ft | 552 kts | 71° |
| 2026-05-08 12:26 | 38.75255 | -76.51796 | 31896 ft | 544 kts | 68° |
| 2026-05-08 12:26 | 38.76325 | -76.47166 | 31430 ft | 541 kts | 69° |
| 2026-05-08 12:26 | 38.77287 | -76.42508 | 30990 ft | 540 kts | 72° |
| 2026-05-08 12:26 | 38.78172 | -76.37852 | 30606 ft | 536 kts | 72° |
| 2026-05-08 12:27 | 38.79109 | -76.33254 | 30177 ft | 527 kts | 70° |
| 2026-05-08 12:27 | 38.80083 | -76.28775 | 29676 ft | 518 kts | 70° |
| 2026-05-08 12:27 | 38.81011 | -76.24344 | 29173 ft | 511 kts | 71° |
| 2026-05-08 12:27 | 38.81882 | -76.19949 | 28679 ft | 506 kts | 72° |
| 2026-05-08 12:28 | 38.82756 | -76.15595 | 28194 ft | 502 kts | 71° |
| 2026-05-08 12:28 | 38.83660 | -76.11269 | 27714 ft | 500 kts | 71° |
| 2026-05-08 12:28 | 38.84541 | -76.07016 | 27246 ft | 497 kts | 71° |
| 2026-05-08 12:28 | 38.85402 | -76.02733 | 26784 ft | 494 kts | 71° |
| 2026-05-08 12:29 | 38.86252 | -75.98485 | 26329 ft | 490 kts | 71° |
| 2026-05-08 12:29 | 38.87105 | -75.94273 | 25882 ft | 485 kts | 71° |
| 2026-05-08 12:29 | 38.87989 | -75.90128 | 25427 ft | 478 kts | 67° |
| 2026-05-08 12:29 | 38.89308 | -75.86290 | 24994 ft | 464 kts | 53° |
| 2026-05-08 12:30 | 38.91082 | -75.82916 | 24564 ft | 449 kts | 42° |
| 2026-05-08 12:30 | 38.93204 | -75.80081 | 24141 ft | 433 kts | 31° |
| 2026-05-08 12:30 | 38.95514 | -75.77666 | 23769 ft | 423 kts | 26° |
| 2026-05-08 12:30 | 38.97884 | -75.75497 | 23296 ft | 415 kts | 22° |
| 2026-05-08 12:31 | 39.00254 | -75.73398 | 22808 ft | 414 kts | 24° |
| 2026-05-08 12:31 | 39.02569 | -75.71197 | 22324 ft | 413 kts | 26° |
| 2026-05-08 12:31 | 39.04915 | -75.69192 | 21847 ft | 395 kts | 15° |
| 2026-05-08 12:31 | 39.07403 | -75.67937 | 21382 ft | 374 kts | 3° |
| 2026-05-08 12:32 | 39.09903 | -75.67322 | 20924 ft | 360 kts | 355° |
| 2026-05-08 12:32 | 39.12365 | -75.67021 | 20472 ft | 352 kts | 351° |
| 2026-05-08 12:32 | 39.14794 | -75.66860 | 20056 ft | 349 kts | 351° |
| 2026-05-08 12:32 | 39.17215 | -75.66628 | 19615 ft | 349 kts | 353° |
| 2026-05-08 12:33 | 39.19632 | -75.66321 | 19179 ft | 348 kts | 354° |
| 2026-05-08 12:33 | 39.21995 | -75.66042 | 18758 ft | 344 kts | 353° |
| 2026-05-08 12:33 | 39.24373 | -75.65799 | 18332 ft | 341 kts | 353° |
| 2026-05-08 12:33 | 39.26732 | -75.65527 | 17844 ft | 343 kts | 357° |
| 2026-05-08 12:34 | 39.29075 | -75.64635 | 17353 ft | 360 kts | 14° |
| 2026-05-08 12:34 | 39.31292 | -75.63061 | 16866 ft | 366 kts | 23° |
| 2026-05-08 12:34 | 39.33383 | -75.61161 | 16401 ft | 368 kts | 28° |
| 2026-05-08 12:34 | 39.35425 | -75.59197 | 15957 ft | 363 kts | 27° |
| 2026-05-08 12:35 | 39.37503 | -75.57388 | 15507 ft | 356 kts | 24° |
| 2026-05-08 12:35 | 39.39684 | -75.56028 | 15058 ft | 342 kts | 11° |
| 2026-05-08 12:35 | 39.41944 | -75.55201 | 14616 ft | 335 kts | 5° |
| 2026-05-08 12:35 | 39.44209 | -75.54587 | 14179 ft | 332 kts | 4° |
| 2026-05-08 12:36 | 39.46466 | -75.53927 | 13729 ft | 332 kts | 6° |
| 2026-05-08 12:36 | 39.48702 | -75.53171 | 13240 ft | 331 kts | 8° |
| 2026-05-08 12:36 | 39.50917 | -75.52430 | 12760 ft | 327 kts | 7° |
| 2026-05-08 12:36 | 39.53109 | -75.51743 | 12286 ft | 322 kts | 7° |
| 2026-05-08 12:37 | 39.55279 | -75.51063 | 11818 ft | 319 kts | 7° |
| 2026-05-08 12:37 | 39.57422 | -75.50373 | 11367 ft | 316 kts | 8° |
| 2026-05-08 12:37 | 39.59543 | -75.49686 | 10913 ft | 312 kts | 8° |
| 2026-05-08 12:37 | 39.61643 | -75.49014 | 10466 ft | 309 kts | 8° |
| 2026-05-08 12:38 | 39.63694 | -75.48190 | 10022 ft | 312 kts | 19° |
| 2026-05-08 12:38 | 39.65515 | -75.46620 | 9533 ft | 318 kts | 37° |
| 2026-05-08 12:38 | 39.66931 | -75.44401 | 9058 ft | 322 kts | 52° |
| 2026-05-08 12:38 | 39.68013 | -75.41854 | 8585 ft | 323 kts | 60° |
| 2026-05-08 12:39 | 39.68904 | -75.39189 | 8113 ft | 320 kts | 62° |
| 2026-05-08 12:39 | 39.69814 | -75.36580 | 7650 ft | 315 kts | 59° |
| 2026-05-08 12:39 | 39.70797 | -75.34053 | 7188 ft | 312 kts | 58° |
| 2026-05-08 12:39 | 39.71759 | -75.31553 | 6947 ft | 307 kts | 59° |
| 2026-05-08 12:40 | 39.72681 | -75.29052 | 6697 ft | 308 kts | 59° |
| 2026-05-08 12:40 | 39.73609 | -75.26532 | 6449 ft | 310 kts | 59° |
| 2026-05-08 12:40 | 39.74547 | -75.24021 | 6188 ft | 308 kts | 59° |
| 2026-05-08 12:40 | 39.75478 | -75.21523 | 5924 ft | 306 kts | 59° |
| 2026-05-08 12:41 | 39.76398 | -75.19050 | 5667 ft | 303 kts | 59° |
| 2026-05-08 12:41 | 39.77308 | -75.16593 | 5407 ft | 300 kts | 59° |
| 2026-05-08 12:41 | 39.78202 | -75.14186 | 5154 ft | 298 kts | 59° |
| 2026-05-08 12:41 | 39.79101 | -75.11767 | 4898 ft | 297 kts | 59° |
| 2026-05-08 12:42 | 39.79982 | -75.09376 | 4638 ft | 287 kts | 60° |
| 2026-05-08 12:42 | 39.80691 | -75.06986 | 4368 ft | 280 kts | 69° |
| 2026-05-08 12:42 | 39.81300 | -75.04624 | 4112 ft | 271 kts | 62° |
| 2026-05-08 12:42 | 39.82199 | -75.02516 | 3849 ft | 262 kts | 50° |
| 2026-05-08 12:43 | 39.83295 | -75.00659 | 3587 ft | 257 kts | 47° |
| 2026-05-08 12:43 | 39.84399 | -74.98849 | 3337 ft | 254 kts | 45° |
| 2026-05-08 12:43 | 39.85570 | -74.97142 | 3010 ft | 254 kts | 43° |
| 2026-05-08 12:43 | 39.86783 | -74.95558 | 2991 ft | 240 kts | 36° |
| 2026-05-08 12:44 | 39.88063 | -74.94240 | 2987 ft | 230 kts | 33° |
| 2026-05-08 12:44 | 39.89297 | -74.92976 | 2986 ft | 222 kts | 33° |
| 2026-05-08 12:44 | 39.90534 | -74.91846 | 2985 ft | 213 kts | 24° |
| 2026-05-08 12:44 | 39.91831 | -74.90980 | 2992 ft | 207 kts | 22° |
| 2026-05-08 12:45 | 39.93103 | -74.90124 | 2992 ft | 206 kts | 22° |
| 2026-05-08 12:45 | 39.94375 | -74.89268 | 2992 ft | 206 kts | 22° |
| 2026-05-08 12:45 | 39.95645 | -74.88413 | 2992 ft | 205 kts | 22° |
| 2026-05-08 12:45 | 39.96914 | -74.87553 | 2991 ft | 205 kts | 23° |
| 2026-05-08 12:46 | 39.98172 | -74.86701 | 2991 ft | 205 kts | 23° |
| 2026-05-08 12:46 | 39.99435 | -74.85847 | 2991 ft | 205 kts | 22° |
| 2026-05-08 12:46 | 40.00695 | -74.84993 | 2984 ft | 201 kts | 23° |
| 2026-05-08 12:46 | 40.01961 | -74.84242 | 2819 ft | 199 kts | 12° |
| 2026-05-08 12:47 | 40.03302 | -74.84062 | 2635 ft | 190 kts | 352° |
| 2026-05-08 12:47 | 40.04579 | -74.84431 | 2384 ft | 187 kts | 343° |
| 2026-05-08 12:47 | 40.05773 | -74.84885 | 2283 ft | 166 kts | 341° |
| 2026-05-08 12:47 | 40.06804 | -74.85345 | 1918 ft | 147 kts | 334° |
| 2026-05-08 12:48 | 40.07603 | -74.85997 | 1775 ft | 130 kts | 325° |
| 2026-05-08 12:48 | 40.08321 | -74.86675 | 1547 ft | 122 kts | 324° |
| 2026-05-08 12:48 | 40.08872 | -74.87428 | 1540 ft | 111 kts | 307° |
| 2026-05-08 12:48 | 40.09313 | -74.88275 | 1432 ft | 115 kts | 308° |
| 2026-05-08 12:49 | 40.09809 | -74.89090 | 1378 ft | 115 kts | 312° |
| 2026-05-08 12:49 | 40.10327 | -74.89861 | 1373 ft | 111 kts | 312° |
| 2026-05-08 12:49 | 40.10820 | -74.90652 | 1346 ft | 113 kts | 309° |
| 2026-05-08 12:49 | 40.11299 | -74.91477 | 1346 ft | 113 kts | 308° |
| 2026-05-08 12:50 | 40.11750 | -74.92323 | 1339 ft | 114 kts | 305° |
| 2026-05-08 12:50 | 40.12176 | -74.93190 | 1330 ft | 114 kts | 301° |
| 2026-05-08 12:50 | 40.12361 | -74.94211 | 1267 ft | 119 kts | 274° |
| 2026-05-08 12:50 | 40.12198 | -74.95275 | 1215 ft | 122 kts | 253° |
| 2026-05-08 12:51 | 40.11747 | -74.96214 | 1031 ft | 123 kts | 234° |
| 2026-05-08 12:51 | 40.10631 | -74.97778 | 662 ft | 113 kts | 233° |
| 2026-05-08 12:51 | 40.10123 | -74.98534 | 472 ft | 110 kts | 231° |
| 2026-05-08 12:52 | 40.09609 | -74.99291 | 318 ft | 110 kts | 231° |
| 2026-05-08 12:52 | 40.08664 | -75.00724 | 108 ft | 85 kts | 233° |
| 2026-05-08 12:52 | 40.08338 | -75.01166 | 112 ft | 39 kts | 227° |
| 2026-05-08 12:53 | 40.08277 | -75.01214 | 112 ft | 9 kts | 132° |
| 2026-05-08 12:53 | 40.08205 | -75.01143 | 112 ft | 15 kts | 137° |
| 2026-05-08 12:53 | 40.08127 | -75.01045 | 112 ft | 17 kts | 144° |
| 2026-05-08 12:53 | 40.08039 | -75.00966 | 114 ft | 10 kts | 139° |
| 2026-05-08 12:54 | 40.07975 | -75.01008 | 114 ft | 12 kts | 209° |
| 2026-05-08 12:54 | 40.07885 | -75.01072 | 111 ft | 16 kts | 205° |
| 2026-05-08 12:54 | 40.07831 | -75.01075 | 109 ft | 13 kts | 148° |
| 2026-05-08 12:54 | 40.07769 | -75.01019 | 109 ft | 6 kts | 174° |
| 2026-05-08 12:55 | 40.07752 | -75.01070 | 119 ft | 9 kts | 311° |
| 2026-05-08 12:55 | 40.07760 | -75.01079 | 115 ft | 0 kts | 320° |
| 2026-05-08 12:57 | 40.10266 | -74.98321 | 523 ft | 110 kts | 231° |
| 2026-05-08 12:57 | 40.09764 | -74.99059 | 358 ft | 112 kts | 230° |
| 2026-05-08 12:57 | 40.09274 | -74.99789 | 221 ft | 109 kts | 231° |
| 2026-05-08 12:58 | 40.08801 | -75.00496 | 111 ft | 97 kts | 229° |
| 2026-05-08 12:58 | 40.08441 | -75.01025 | 112 ft | 65 kts | 225° |
| 2026-05-08 12:58 | 40.08323 | -75.01188 | 112 ft | 30 kts | 227° |
| 2026-05-08 12:58 | 40.07760 | -75.01079 | 115 ft | 0 kts | 320° |
| 2026-05-08 12:59 | 40.09229 | -74.99856 | 206 ft | 109 kts | 231° |
| 2026-05-08 12:59 | 40.09076 | -75.00080 | 168 ft | 108 kts | 231° |
| 2026-05-08 13:00 | 40.08971 | -75.00235 | 135 ft | 107 kts | 232° |
| 2026-05-08 13:01 | 40.08940 | -75.00281 | 125 ft | 106 kts | 232° |
| 2026-05-08 13:02 | 40.08828 | -75.00453 | 114 ft | 99 kts | 227° |